Time;durP1;ratioP1;P1;durP2;ratioP2;P2;SDS_P1;SDS_P2;PMS_P1;PMS_P2;Temp;Humidity;BMP_temperature;BMP_pressure;BME280_temperature;BME280_humidity;BME280_pressure;Samples;Min_cycle;Max_cycle;Signal;HPM_P1;HPM_P2
2024/03/14 00:01:04;;;;;;;1.1;0.8;;;;;;;;;;;;;
2024/03/14 00:03:28;;;;;;;0.7;0.6;;;;;;;;;;;;;
2024/03/14 00:05:53;;;;;;;1;0.7;;;;;;;;;;;;;
2024/03/14 00:08:17;;;;;;;0.6;0.6;;;;;;;;;;;;;
2024/03/14 00:10:42;;;;;;;0.6;0.6;;;;;;;;;;;;;
2024/03/14 00:13:07;;;;;;;1.7;1.2;;;;;;;;;;;;;
2024/03/14 00:15:32;;;;;;;1.1;1;;;;;;;;;;;;;
2024/03/14 00:17:57;;;;;;;1.4;1.3;;;;;;;;;;;;;
2024/03/14 00:20:22;;;;;;;1.2;1.1;;;;;;;;;;;;;
2024/03/14 00:22:48;;;;;;;0.8;0.8;;;;;;;;;;;;;
2024/03/14 00:25:13;;;;;;;1.1;1;;;;;;;;;;;;;
2024/03/14 00:27:39;;;;;;;0.8;0.8;;;;;;;;;;;;;
2024/03/14 00:30:03;;;;;;;0.9;0.9;;;;;;;;;;;;;
2024/03/14 00:32:30;;;;;;;1.8;1.2;;;;;;;;;;;;;
2024/03/14 00:34:54;;;;;;;1;0.9;;;;;;;;;;;;;
2024/03/14 00:37:18;;;;;;;1.9;0.9;;;;;;;;;;;;;
2024/03/14 00:39:44;;;;;;;0.7;0.6;;;;;;;;;;;;;
2024/03/14 00:42:09;;;;;;;0.6;0.5;;;;;;;;;;;;;
2024/03/14 00:44:34;;;;;;;0.8;0.8;;;;;;;;;;;;;
2024/03/14 00:46:59;;;;;;;0.7;0.7;;;;;;;;;;;;;
2024/03/14 00:49:25;;;;;;;0.7;0.7;;;;;;;;;;;;;
2024/03/14 00:51:49;;;;;;;1.9;0.9;;;;;;;;;;;;;
2024/03/14 00:54:15;;;;;;;0.7;0.7;;;;;;;;;;;;;
2024/03/14 00:56:43;;;;;;;0.7;0.7;;;;;;;;;;;;;
2024/03/14 00:59:05;;;;;;;0.8;0.5;;;;;;;;;;;;;
2024/03/14 01:01:30;;;;;;;1.5;0.6;;;;;;;;;;;;;
2024/03/14 01:03:55;;;;;;;0.6;0.6;;;;;;;;;;;;;
2024/03/14 01:06:21;;;;;;;1.5;0.5;;;;;;;;;;;;;
2024/03/14 01:08:45;;;;;;;0.5;0.5;;;;;;;;;;;;;
2024/03/14 01:11:10;;;;;;;0.5;0.5;;;;;;;;;;;;;
2024/03/14 01:13:36;;;;;;;0.7;0.6;;;;;;;;;;;;;
2024/03/14 01:16:00;;;;;;;0.5;0.5;;;;;;;;;;;;;
2024/03/14 01:18:26;;;;;;;0.4;0.4;;;;;;;;;;;;;
2024/03/14 01:20:51;;;;;;;0.5;0.5;;;;;;;;;;;;;
2024/03/14 01:23:16;;;;;;;3.5;0.5;;;;;;;;;;;;;
2024/03/14 01:25:41;;;;;;;0.7;0.6;;;;;;;;;;;;;
2024/03/14 01:28:07;;;;;;;1;0.4;;;;;;;;;;;;;
2024/03/14 01:30:31;;;;;;;0.5;0.5;;;;;;;;;;;;;
2024/03/14 01:32:56;;;;;;;1.3;0.6;;;;;;;;;;;;;
2024/03/14 01:35:21;;;;;;;0.6;0.6;;;;;;;;;;;;;
2024/03/14 01:37:46;;;;;;;0.7;0.5;;;;;;;;;;;;;
2024/03/14 01:40:13;;;;;;;1.2;0.6;;;;;;;;;;;;;
2024/03/14 01:42:36;;;;;;;0.5;0.5;;;;;;;;;;;;;
2024/03/14 01:45:04;;;;;;;0.4;0.4;;;;;;;;;;;;;
2024/03/14 01:47:27;;;;;;;0.7;0.5;;;;;;;;;;;;;
2024/03/14 01:49:52;;;;;;;0.7;0.5;;;;;;;;;;;;;
2024/03/14 01:52:17;;;;;;;0.3;0.3;;;;;;;;;;;;;
2024/03/14 01:54:42;;;;;;;0.5;0.5;;;;;;;;;;;;;
2024/03/14 01:57:08;;;;;;;0.4;0.4;;;;;;;;;;;;;
2024/03/14 01:59:32;;;;;;;0.7;0.5;;;;;;;;;;;;;
2024/03/14 02:01:57;;;;;;;0.5;0.5;;;;;;;;;;;;;
2024/03/14 02:04:22;;;;;;;0.7;0.6;;;;;;;;;;;;;
2024/03/14 02:06:47;;;;;;;0.5;0.5;;;;;;;;;;;;;
2024/03/14 02:09:13;;;;;;;0.5;0.5;;;;;;;;;;;;;
2024/03/14 02:11:38;;;;;;;1.2;0.7;;;;;;;;;;;;;
2024/03/14 02:14:03;;;;;;;0.9;0.6;;;;;;;;;;;;;
2024/03/14 02:16:28;;;;;;;1.5;0.9;;;;;;;;;;;;;
2024/03/14 02:18:53;;;;;;;1.4;0.5;;;;;;;;;;;;;
2024/03/14 02:21:19;;;;;;;0.8;0.8;;;;;;;;;;;;;
2024/03/14 02:23:43;;;;;;;0.5;0.5;;;;;;;;;;;;;
2024/03/14 02:26:09;;;;;;;0.6;0.4;;;;;;;;;;;;;
2024/03/14 02:28:34;;;;;;;0.7;0.7;;;;;;;;;;;;;
2024/03/14 02:30:59;;;;;;;1.3;0.7;;;;;;;;;;;;;
2024/03/14 02:33:24;;;;;;;0.7;0.7;;;;;;;;;;;;;
2024/03/14 02:35:49;;;;;;;0.9;0.7;;;;;;;;;;;;;
2024/03/14 02:38:14;;;;;;;0.5;0.5;;;;;;;;;;;;;
2024/03/14 02:40:39;;;;;;;0.6;0.5;;;;;;;;;;;;;
2024/03/14 02:43:05;;;;;;;0.5;0.5;;;;;;;;;;;;;
2024/03/14 02:45:29;;;;;;;1;0.5;;;;;;;;;;;;;
2024/03/14 02:47:54;;;;;;;0.9;0.7;;;;;;;;;;;;;
2024/03/14 02:50:20;;;;;;;0.4;0.4;;;;;;;;;;;;;
2024/03/14 02:52:45;;;;;;;3.6;0.7;;;;;;;;;;;;;
2024/03/14 02:55:10;;;;;;;0.4;0.4;;;;;;;;;;;;;
2024/03/14 02:57:35;;;;;;;0.8;0.8;;;;;;;;;;;;;
2024/03/14 03:00:05;;;;;;;0.8;0.7;;;;;;;;;;;;;
2024/03/14 03:02:25;;;;;;;0.6;0.5;;;;;;;;;;;;;
2024/03/14 03:04:50;;;;;;;0.8;0.5;;;;;;;;;;;;;
2024/03/14 03:07:15;;;;;;;0.5;0.5;;;;;;;;;;;;;
2024/03/14 03:09:41;;;;;;;0.5;0.5;;;;;;;;;;;;;
2024/03/14 03:12:05;;;;;;;0.7;0.4;;;;;;;;;;;;;
2024/03/14 03:14:31;;;;;;;0.5;0.5;;;;;;;;;;;;;
2024/03/14 03:16:56;;;;;;;0.5;0.5;;;;;;;;;;;;;
2024/03/14 03:19:21;;;;;;;0.7;0.5;;;;;;;;;;;;;
2024/03/14 03:21:46;;;;;;;0.7;0.7;;;;;;;;;;;;;
2024/03/14 03:24:12;;;;;;;0.6;0.5;;;;;;;;;;;;;
2024/03/14 03:26:36;;;;;;;1;0.7;;;;;;;;;;;;;
2024/03/14 03:29:02;;;;;;;1.4;0.8;;;;;;;;;;;;;
2024/03/14 03:31:28;;;;;;;1;0.8;;;;;;;;;;;;;
2024/03/14 03:33:52;;;;;;;0.7;0.7;;;;;;;;;;;;;
2024/03/14 03:36:17;;;;;;;0.9;0.7;;;;;;;;;;;;;
2024/03/14 03:38:42;;;;;;;0.9;0.7;;;;;;;;;;;;;
2024/03/14 03:41:09;;;;;;;0.8;0.7;;;;;;;;;;;;;
2024/03/14 03:43:32;;;;;;;1.3;0.6;;;;;;;;;;;;;
2024/03/14 03:45:58;;;;;;;0.6;0.6;;;;;;;;;;;;;
2024/03/14 03:48:22;;;;;;;0.5;0.4;;;;;;;;;;;;;
2024/03/14 03:50:48;;;;;;;1;0.5;;;;;;;;;;;;;
2024/03/14 03:53:13;;;;;;;0.5;0.5;;;;;;;;;;;;;
2024/03/14 03:55:38;;;;;;;0.6;0.6;;;;;;;;;;;;;
2024/03/14 03:58:03;;;;;;;1.5;0.9;;;;;;;;;;;;;
2024/03/14 04:02:30;;;;;;;2.8;1.3;;;;;;;;;;;;;
2024/03/14 04:04:57;;;;;;;5.7;1.6;;;;;;;;;;;;;
2024/03/14 04:07:20;;;;;;;4.7;1.9;;;;;;;;;;;;;
2024/03/14 04:09:46;;;;;;;5;1.5;;;;;;;;;;;;;
2024/03/14 04:12:10;;;;;;;2.3;1.2;;;;;;;;;;;;;
2024/03/14 04:14:40;;;;;;;0.8;0.7;;;;;;;;;;;;;
2024/03/14 04:17:01;;;;;;;1.2;0.8;;;;;;;;;;;;;
2024/03/14 04:19:25;;;;;;;2.1;0.7;;;;;;;;;;;;;
2024/03/14 04:21:50;;;;;;;1.9;1;;;;;;;;;;;;;
2024/03/14 04:24:17;;;;;;;3.6;1.6;;;;;;;;;;;;;
2024/03/14 04:26:41;;;;;;;3.2;1.6;;;;;;;;;;;;;
2024/03/14 04:29:07;;;;;;;2;1.5;;;;;;;;;;;;;
2024/03/14 04:31:31;;;;;;;2.5;0.9;;;;;;;;;;;;;
2024/03/14 04:33:56;;;;;;;1.3;0.9;;;;;;;;;;;;;
2024/03/14 04:36:21;;;;;;;1;0.8;;;;;;;;;;;;;
2024/03/14 04:38:47;;;;;;;1.6;0.8;;;;;;;;;;;;;
2024/03/14 04:41:16;;;;;;;0.9;0.7;;;;;;;;;;;;;
2024/03/14 04:43:37;;;;;;;0.7;0.7;;;;;;;;;;;;;
2024/03/14 04:46:02;;;;;;;1.3;1.2;;;;;;;;;;;;;
2024/03/14 04:48:29;;;;;;;1.4;1.3;;;;;;;;;;;;;
2024/03/14 04:50:53;;;;;;;1.4;1.3;;;;;;;;;;;;;
2024/03/14 04:53:17;;;;;;;1.3;1.2;;;;;;;;;;;;;
2024/03/14 04:55:45;;;;;;;1.4;1.3;;;;;;;;;;;;;
2024/03/14 04:58:08;;;;;;;2.6;1.7;;;;;;;;;;;;;
2024/03/14 05:00:33;;;;;;;2.3;1.7;;;;;;;;;;;;;
2024/03/14 05:02:58;;;;;;;2.3;1.5;;;;;;;;;;;;;
2024/03/14 05:05:23;;;;;;;5.1;2.5;;;;;;;;;;;;;
2024/03/14 05:07:48;;;;;;;5.8;2.4;;;;;;;;;;;;;
2024/03/14 05:10:14;;;;;;;5.4;2.7;;;;;;;;;;;;;
2024/03/14 05:12:38;;;;;;;2.5;2.3;;;;;;;;;;;;;
2024/03/14 05:15:07;;;;;;;3.3;2.2;;;;;;;;;;;;;
2024/03/14 05:17:29;;;;;;;2.8;2;;;;;;;;;;;;;
2024/03/14 05:19:55;;;;;;;2.8;2.3;;;;;;;;;;;;;
2024/03/14 05:22:19;;;;;;;4;2.2;;;;;;;;;;;;;
2024/03/14 05:24:44;;;;;;;4.4;2.3;;;;;;;;;;;;;
2024/03/14 05:27:09;;;;;;;2.3;2;;;;;;;;;;;;;
2024/03/14 05:29:34;;;;;;;5.1;3.8;;;;;;;;;;;;;
2024/03/14 05:31:59;;;;;;;2.7;2.4;;;;;;;;;;;;;
2024/03/14 05:34:24;;;;;;;4.3;3.3;;;;;;;;;;;;;
2024/03/14 05:36:51;;;;;;;3.1;2.5;;;;;;;;;;;;;
2024/03/14 05:39:15;;;;;;;4.8;2.8;;;;;;;;;;;;;
2024/03/14 05:41:40;;;;;;;3.5;2.3;;;;;;;;;;;;;
2024/03/14 05:44:05;;;;;;;2.4;2.2;;;;;;;;;;;;;
2024/03/14 05:46:30;;;;;;;10.8;5.5;;;;;;;;;;;;;
2024/03/14 05:48:56;;;;;;;11.8;6.3;;;;;;;;;;;;;
2024/03/14 05:51:20;;;;;;;5.9;3.8;;;;;;;;;;;;;
2024/03/14 05:53:45;;;;;;;4.7;3.1;;;;;;;;;;;;;
2024/03/14 05:56:10;;;;;;;5.3;3.2;;;;;;;;;;;;;
2024/03/14 05:58:37;;;;;;;3.5;2.6;;;;;;;;;;;;;
2024/03/14 06:01:03;;;;;;;2.9;2.3;;;;;;;;;;;;;
2024/03/14 06:03:26;;;;;;;3.1;2.3;;;;;;;;;;;;;
2024/03/14 06:05:52;;;;;;;3.6;2.4;;;;;;;;;;;;;
2024/03/14 06:08:16;;;;;;;4.4;2.6;;;;;;;;;;;;;
2024/03/14 06:10:41;;;;;;;6.4;2.7;;;;;;;;;;;;;
2024/03/14 06:13:07;;;;;;;4.3;2.2;;;;;;;;;;;;;
2024/03/14 06:15:34;;;;;;;4.2;3.5;;;;;;;;;;;;;
2024/03/14 06:17:57;;;;;;;2.5;1.7;;;;;;;;;;;;;
2024/03/14 06:20:24;;;;;;;2.2;1.4;;;;;;;;;;;;;
2024/03/14 06:22:48;;;;;;;1.8;1.2;;;;;;;;;;;;;
2024/03/14 06:25:15;;;;;;;2.7;1.7;;;;;;;;;;;;;
2024/03/14 06:27:38;;;;;;;1.8;1.4;;;;;;;;;;;;;
2024/03/14 06:30:04;;;;;;;2.3;2;;;;;;;;;;;;;
2024/03/14 06:32:28;;;;;;;3.1;1.7;;;;;;;;;;;;;
2024/03/14 06:34:53;;;;;;;1.9;1.4;;;;;;;;;;;;;
2024/03/14 06:37:19;;;;;;;3.1;1.7;;;;;;;;;;;;;
2024/03/14 06:39:45;;;;;;;3.5;2;;;;;;;;;;;;;
2024/03/14 06:42:09;;;;;;;14.8;4.8;;;;;;;;;;;;;
2024/03/14 06:44:34;;;;;;;8.8;4.1;;;;;;;;;;;;;
2024/03/14 06:46:59;;;;;;;15.4;6;;;;;;;;;;;;;
2024/03/14 06:49:24;;;;;;;15.2;6.4;;;;;;;;;;;;;
2024/03/14 06:51:50;;;;;;;13.5;5.8;;;;;;;;;;;;;
2024/03/14 06:54:14;;;;;;;14.2;5.9;;;;;;;;;;;;;
2024/03/14 06:56:40;;;;;;;9.1;5.8;;;;;;;;;;;;;
2024/03/14 06:59:05;;;;;;;7.8;3.8;;;;;;;;;;;;;
2024/03/14 07:01:31;;;;;;;7.4;4.9;;;;;;;;;;;;;
2024/03/14 07:03:55;;;;;;;7;5.1;;;;;;;;;;;;;
2024/03/14 07:06:23;;;;;;;8.8;5.9;;;;;;;;;;;;;
2024/03/14 07:08:46;;;;;;;5.2;3.7;;;;;;;;;;;;;
2024/03/14 07:11:12;;;;;;;4;2.5;;;;;;;;;;;;;
2024/03/14 07:13:36;;;;;;;3.3;2;;;;;;;;;;;;;
2024/03/14 07:16:01;;;;;;;4.2;2.5;;;;;;;;;;;;;
2024/03/14 07:18:27;;;;;;;5.4;2.4;;;;;;;;;;;;;
2024/03/14 07:20:52;;;;;;;3.6;2.1;;;;;;;;;;;;;
2024/03/14 07:23:16;;;;;;;2.9;1.9;;;;;;;;;;;;;
2024/03/14 07:25:42;;;;;;;2.5;1.4;;;;;;;;;;;;;
2024/03/14 07:28:09;;;;;;;2.6;1.3;;;;;;;;;;;;;
2024/03/14 07:30:34;;;;;;;1.7;1;;;;;;;;;;;;;
2024/03/14 07:32:56;;;;;;;2.6;1.9;;;;;;;;;;;;;
2024/03/14 07:35:21;;;;;;;2.3;1.6;;;;;;;;;;;;;
2024/03/14 07:37:47;;;;;;;1;0.9;;;;;;;;;;;;;
2024/03/14 07:40:15;;;;;;;7.8;2;;;;;;;;;;;;;
2024/03/14 07:42:38;;;;;;;7.1;4.9;;;;;;;;;;;;;
2024/03/14 07:45:03;;;;;;;4.3;2.7;;;;;;;;;;;;;
2024/03/14 07:47:27;;;;;;;1.9;1.5;;;;;;;;;;;;;
2024/03/14 07:49:52;;;;;;;3.6;1.9;;;;;;;;;;;;;
2024/03/14 07:52:17;;;;;;;0.6;0.6;;;;;;;;;;;;;
2024/03/14 07:54:44;;;;;;;3.5;1.1;;;;;;;;;;;;;
2024/03/14 07:57:07;;;;;;;1.4;1.1;;;;;;;;;;;;;
2024/03/14 07:59:32;;;;;;;2.8;1.4;;;;;;;;;;;;;
2024/03/14 08:01:58;;;;;;;1.8;1.1;;;;;;;;;;;;;
2024/03/14 08:04:24;;;;;;;1.3;0.9;;;;;;;;;;;;;
2024/03/14 08:06:51;;;;;;;1.8;1.2;;;;;;;;;;;;;
2024/03/14 08:09:14;;;;;;;3.1;1.3;;;;;;;;;;;;;
2024/03/14 08:11:40;;;;;;;1.6;1.2;;;;;;;;;;;;;
2024/03/14 08:14:06;;;;;;;0.8;0.7;;;;;;;;;;;;;
2024/03/14 08:16:31;;;;;;;1.9;0.9;;;;;;;;;;;;;
2024/03/14 08:18:53;;;;;;;1.5;1.1;;;;;;;;;;;;;
2024/03/14 08:21:19;;;;;;;2.3;1.3;;;;;;;;;;;;;
2024/03/14 08:23:43;;;;;;;1.1;1;;;;;;;;;;;;;
2024/03/14 08:26:09;;;;;;;1.6;0.9;;;;;;;;;;;;;
2024/03/14 08:28:34;;;;;;;1.7;0.7;;;;;;;;;;;;;
2024/03/14 08:31:01;;;;;;;2;0.7;;;;;;;;;;;;;
2024/03/14 08:33:25;;;;;;;0.6;0.6;;;;;;;;;;;;;
2024/03/14 08:35:49;;;;;;;0.6;0.5;;;;;;;;;;;;;
2024/03/14 08:38:15;;;;;;;0.5;0.5;;;;;;;;;;;;;
2024/03/14 08:40:39;;;;;;;0.5;0.5;;;;;;;;;;;;;
2024/03/14 08:43:05;;;;;;;2.3;0.6;;;;;;;;;;;;;
2024/03/14 08:45:29;;;;;;;1.3;0.6;;;;;;;;;;;;;
2024/03/14 08:47:55;;;;;;;0.5;0.5;;;;;;;;;;;;;
2024/03/14 08:50:21;;;;;;;2.5;0.7;;;;;;;;;;;;;
2024/03/14 08:52:44;;;;;;;0.6;0.4;;;;;;;;;;;;;
2024/03/14 08:55:29;;;;;;;3.2;0.8;;;;;;;;;;;;;
2024/03/14 08:57:35;;;;;;;0.6;0.6;;;;;;;;;;;;;
2024/03/14 09:00:00;;;;;;;1.3;0.5;;;;;;;;;;;;;
2024/03/14 09:02:27;;;;;;;1.4;0.6;;;;;;;;;;;;;
2024/03/14 09:04:51;;;;;;;0.8;0.5;;;;;;;;;;;;;
2024/03/14 09:07:15;;;;;;;1.6;1;;;;;;;;;;;;;
2024/03/14 09:09:40;;;;;;;1.6;0.8;;;;;;;;;;;;;
2024/03/14 09:12:13;;;;;;;1.1;1;;;;;;;;;;;;;
2024/03/14 09:14:31;;;;;;;0.6;0.6;;;;;;;;;;;;;
2024/03/14 09:16:56;;;;;;;1.2;0.5;;;;;;;;;;;;;
2024/03/14 09:19:23;;;;;;;0.5;0.5;;;;;;;;;;;;;
2024/03/14 09:21:47;;;;;;;1.1;0.4;;;;;;;;;;;;;
2024/03/14 09:24:12;;;;;;;0.6;0.6;;;;;;;;;;;;;
2024/03/14 09:26:38;;;;;;;0.5;0.4;;;;;;;;;;;;;
2024/03/14 09:29:02;;;;;;;0.4;0.4;;;;;;;;;;;;;
2024/03/14 09:31:27;;;;;;;0.9;0.5;;;;;;;;;;;;;
2024/03/14 09:33:52;;;;;;;0.8;0.5;;;;;;;;;;;;;
2024/03/14 09:36:19;;;;;;;0.9;0.6;;;;;;;;;;;;;
2024/03/14 09:38:42;;;;;;;0.9;0.5;;;;;;;;;;;;;
2024/03/14 09:41:10;;;;;;;2.5;0.6;;;;;;;;;;;;;
2024/03/14 09:43:33;;;;;;;0.4;0.4;;;;;;;;;;;;;
2024/03/14 09:45:59;;;;;;;1.2;0.5;;;;;;;;;;;;;
2024/03/14 09:48:23;;;;;;;0.7;0.6;;;;;;;;;;;;;
2024/03/14 09:50:49;;;;;;;0.4;0.4;;;;;;;;;;;;;
2024/03/14 09:53:15;;;;;;;0.5;0.4;;;;;;;;;;;;;
2024/03/14 09:55:38;;;;;;;0.6;0.5;;;;;;;;;;;;;
2024/03/14 09:58:04;;;;;;;0.9;0.4;;;;;;;;;;;;;
2024/03/14 10:00:28;;;;;;;0.7;0.7;;;;;;;;;;;;;
2024/03/14 10:02:55;;;;;;;0.4;0.4;;;;;;;;;;;;;
2024/03/14 10:05:19;;;;;;;0.6;0.6;;;;;;;;;;;;;
2024/03/14 10:07:45;;;;;;;0.8;0.5;;;;;;;;;;;;;
2024/03/14 10:10:10;;;;;;;0.5;0.5;;;;;;;;;;;;;
2024/03/14 10:12:34;;;;;;;0.4;0.4;;;;;;;;;;;;;
2024/03/14 10:15:12;;;;;;;1.9;0.6;;;;;;;;;;;;;
2024/03/14 10:17:25;;;;;;;0.6;0.5;;;;;;;;;;;;;
2024/03/14 10:19:49;;;;;;;1.5;0.4;;;;;;;;;;;;;
2024/03/14 10:22:14;;;;;;;0.4;0.4;;;;;;;;;;;;;
2024/03/14 10:24:41;;;;;;;1;0.6;;;;;;;;;;;;;
2024/03/14 10:27:05;;;;;;;0.9;0.4;;;;;;;;;;;;;
2024/03/14 10:29:33;;;;;;;0.4;0.4;;;;;;;;;;;;;
2024/03/14 10:31:56;;;;;;;0.5;0.5;;;;;;;;;;;;;
2024/03/14 10:34:22;;;;;;;0.5;0.5;;;;;;;;;;;;;
2024/03/14 10:36:45;;;;;;;0.3;0.3;;;;;;;;;;;;;
2024/03/14 10:39:10;;;;;;;1;0.6;;;;;;;;;;;;;
2024/03/14 10:41:35;;;;;;;0.7;0.5;;;;;;;;;;;;;
2024/03/14 10:44:01;;;;;;;0.5;0.4;;;;;;;;;;;;;
2024/03/14 10:46:26;;;;;;;0.9;0.3;;;;;;;;;;;;;
2024/03/14 10:48:51;;;;;;;0.8;0.4;;;;;;;;;;;;;
2024/03/14 10:51:16;;;;;;;0.7;0.5;;;;;;;;;;;;;
2024/03/14 10:53:41;;;;;;;0.6;0.6;;;;;;;;;;;;;
2024/03/14 10:56:06;;;;;;;1.3;0.4;;;;;;;;;;;;;
2024/03/14 10:58:31;;;;;;;1.4;0.4;;;;;;;;;;;;;
2024/03/14 11:00:56;;;;;;;0.3;0.3;;;;;;;;;;;;;
2024/03/14 11:03:22;;;;;;;0.3;0.3;;;;;;;;;;;;;
2024/03/14 11:05:48;;;;;;;0.2;0.2;;;;;;;;;;;;;
2024/03/14 11:08:12;;;;;;;0.4;0.4;;;;;;;;;;;;;
2024/03/14 11:10:37;;;;;;;0.8;0.4;;;;;;;;;;;;;
2024/03/14 11:13:02;;;;;;;0.9;0.4;;;;;;;;;;;;;
2024/03/14 11:15:27;;;;;;;1.1;0.7;;;;;;;;;;;;;
2024/03/14 11:17:54;;;;;;;3.4;3.1;;;;;;;;;;;;;
2024/03/14 11:20:19;;;;;;;2.2;2;;;;;;;;;;;;;
2024/03/14 11:22:42;;;;;;;1;1;;;;;;;;;;;;;
2024/03/14 11:25:07;;;;;;;2;0.5;;;;;;;;;;;;;
2024/03/14 11:27:33;;;;;;;0.6;0.4;;;;;;;;;;;;;
2024/03/14 11:29:57;;;;;;;0.4;0.4;;;;;;;;;;;;;
2024/03/14 11:32:25;;;;;;;0.4;0.4;;;;;;;;;;;;;
2024/03/14 11:34:48;;;;;;;0.4;0.4;;;;;;;;;;;;;
2024/03/14 11:37:14;;;;;;;0.6;0.6;;;;;;;;;;;;;
2024/03/14 11:39:39;;;;;;;0.6;0.4;;;;;;;;;;;;;
2024/03/14 11:42:03;;;;;;;0.2;0.2;;;;;;;;;;;;;
2024/03/14 11:44:30;;;;;;;0.2;0.2;;;;;;;;;;;;;
2024/03/14 11:46:55;;;;;;;0.2;0.2;;;;;;;;;;;;;
2024/03/14 11:49:20;;;;;;;0.9;0.3;;;;;;;;;;;;;
2024/03/14 11:51:44;;;;;;;0.2;0.2;;;;;;;;;;;;;
2024/03/14 11:54:10;;;;;;;0.3;0.3;;;;;;;;;;;;;
2024/03/14 11:56:34;;;;;;;0.3;0.3;;;;;;;;;;;;;
2024/03/14 11:58:59;;;;;;;0.2;0.2;;;;;;;;;;;;;
2024/03/14 12:01:24;;;;;;;0.8;0.3;;;;;;;;;;;;;
2024/03/14 12:03:49;;;;;;;0.2;0.2;;;;;;;;;;;;;
2024/03/14 12:06:17;;;;;;;0.6;0.4;;;;;;;;;;;;;
2024/03/14 12:08:41;;;;;;;1.1;0.4;;;;;;;;;;;;;
2024/03/14 12:11:04;;;;;;;1.3;0.8;;;;;;;;;;;;;
2024/03/14 12:13:30;;;;;;;0.6;0.5;;;;;;;;;;;;;
2024/03/14 12:15:55;;;;;;;2.5;1;;;;;;;;;;;;;
2024/03/14 12:18:20;;;;;;;0.4;0.4;;;;;;;;;;;;;
2024/03/14 12:20:45;;;;;;;0.4;0.4;;;;;;;;;;;;;
2024/03/14 12:23:11;;;;;;;0.4;0.4;;;;;;;;;;;;;
2024/03/14 12:25:38;;;;;;;0.4;0.4;;;;;;;;;;;;;
2024/03/14 12:28:01;;;;;;;0.3;0.3;;;;;;;;;;;;;
2024/03/14 12:30:26;;;;;;;0.3;0.3;;;;;;;;;;;;;
2024/03/14 12:32:56;;;;;;;0.4;0.3;;;;;;;;;;;;;
2024/03/14 12:35:16;;;;;;;0.3;0.3;;;;;;;;;;;;;
2024/03/14 12:37:42;;;;;;;0.5;0.3;;;;;;;;;;;;;
2024/03/14 12:40:07;;;;;;;0.4;0.2;;;;;;;;;;;;;
2024/03/14 12:42:31;;;;;;;0.2;0.2;;;;;;;;;;;;;
2024/03/14 12:47:29;;;;;;;1;0.3;;;;;;;;;;;;;
2024/03/14 12:50:34;;;;;;;0.3;0.3;;;;;;;;;;;;;
2024/03/14 12:52:45;;;;;;;1.1;0.3;;;;;;;;;;;;;
2024/03/14 12:55:23;;;;;;;0.4;0.3;;;;;;;;;;;;;
2024/03/14 12:58:22;;;;;;;0.4;0.3;;;;;;;;;;;;;
2024/03/14 13:00:40;;;;;;;0.2;0.2;;;;;;;;;;;;;
2024/03/14 13:03:08;;;;;;;0.3;0.2;;;;;;;;;;;;;
2024/03/14 13:05:36;;;;;;;0.7;0.3;;;;;;;;;;;;;
2024/03/14 13:08:04;;;;;;;0.3;0.3;;;;;;;;;;;;;
2024/03/14 13:10:25;;;;;;;0.4;0.3;;;;;;;;;;;;;
2024/03/14 13:12:53;;;;;;;0.7;0.3;;;;;;;;;;;;;
2024/03/14 13:15:16;;;;;;;0.9;0.2;;;;;;;;;;;;;
2024/03/14 13:17:41;;;;;;;0.3;0.3;;;;;;;;;;;;;
2024/03/14 13:20:07;;;;;;;0.5;0.4;;;;;;;;;;;;;
2024/03/14 13:22:32;;;;;;;0.8;0.4;;;;;;;;;;;;;
2024/03/14 13:24:57;;;;;;;0.6;0.2;;;;;;;;;;;;;
2024/03/14 13:27:21;;;;;;;1.3;0.3;;;;;;;;;;;;;
2024/03/14 13:29:47;;;;;;;0.5;0.3;;;;;;;;;;;;;
2024/03/14 13:32:12;;;;;;;0.1;0.1;;;;;;;;;;;;;
2024/03/14 13:34:39;;;;;;;0.7;0.2;;;;;;;;;;;;;
2024/03/14 13:37:02;;;;;;;0.2;0.2;;;;;;;;;;;;;
2024/03/14 13:39:28;;;;;;;0.2;0.2;;;;;;;;;;;;;
2024/03/14 13:41:52;;;;;;;0.3;0.3;;;;;;;;;;;;;
2024/03/14 13:44:18;;;;;;;1;0.3;;;;;;;;;;;;;
2024/03/14 13:46:44;;;;;;;0.3;0.3;;;;;;;;;;;;;
2024/03/14 13:49:09;;;;;;;0.5;0.3;;;;;;;;;;;;;
2024/03/14 13:51:33;;;;;;;0.2;0.2;;;;;;;;;;;;;
2024/03/14 13:53:58;;;;;;;0.2;0.2;;;;;;;;;;;;;
2024/03/14 13:56:26;;;;;;;0.5;0.3;;;;;;;;;;;;;
2024/03/14 13:58:48;;;;;;;0.2;0.2;;;;;;;;;;;;;
2024/03/14 14:01:21;;;;;;;0.3;0.3;;;;;;;;;;;;;
2024/03/14 14:03:39;;;;;;;2.3;0.4;;;;;;;;;;;;;
2024/03/14 14:06:06;;;;;;;0.3;0.2;;;;;;;;;;;;;
2024/03/14 14:08:29;;;;;;;0.4;0.3;;;;;;;;;;;;;
2024/03/14 14:10:55;;;;;;;0.2;0.2;;;;;;;;;;;;;
2024/03/14 14:13:20;;;;;;;0.4;0.3;;;;;;;;;;;;;
2024/03/14 14:15:44;;;;;;;0.2;0.2;;;;;;;;;;;;;
2024/03/14 14:18:11;;;;;;;0.2;0.2;;;;;;;;;;;;;
2024/03/14 14:20:35;;;;;;;0.4;0.3;;;;;;;;;;;;;
2024/03/14 14:23:00;;;;;;;0.3;0.3;;;;;;;;;;;;;
2024/03/14 14:25:26;;;;;;;0.9;0.2;;;;;;;;;;;;;
2024/03/14 14:27:50;;;;;;;0.4;0.3;;;;;;;;;;;;;
2024/03/14 14:30:21;;;;;;;0.3;0.3;;;;;;;;;;;;;
2024/03/14 14:32:40;;;;;;;0.3;0.3;;;;;;;;;;;;;
2024/03/14 14:35:08;;;;;;;1;0.3;;;;;;;;;;;;;
2024/03/14 14:37:31;;;;;;;0.3;0.3;;;;;;;;;;;;;
2024/03/14 14:39:56;;;;;;;0.5;0.4;;;;;;;;;;;;;
2024/03/14 14:42:21;;;;;;;0.5;0.4;;;;;;;;;;;;;
2024/03/14 14:44:47;;;;;;;0.9;0.3;;;;;;;;;;;;;
2024/03/14 14:47:11;;;;;;;0.3;0.3;;;;;;;;;;;;;
2024/03/14 14:49:36;;;;;;;0.5;0.4;;;;;;;;;;;;;
2024/03/14 14:52:01;;;;;;;0.7;0.4;;;;;;;;;;;;;
2024/03/14 14:54:26;;;;;;;0.2;0.2;;;;;;;;;;;;;
2024/03/14 14:56:51;;;;;;;0.2;0.2;;;;;;;;;;;;;
2024/03/14 14:59:18;;;;;;;0.5;0.3;;;;;;;;;;;;;
2024/03/14 15:01:42;;;;;;;0.5;0.4;;;;;;;;;;;;;
2024/03/14 15:04:07;;;;;;;0.3;0.3;;;;;;;;;;;;;
2024/03/14 15:06:33;;;;;;;0.3;0.3;;;;;;;;;;;;;
2024/03/14 15:08:57;;;;;;;0.4;0.4;;;;;;;;;;;;;
2024/03/14 15:11:23;;;;;;;0.4;0.4;;;;;;;;;;;;;
2024/03/14 15:13:48;;;;;;;0.3;0.3;;;;;;;;;;;;;
2024/03/14 15:16:12;;;;;;;0.5;0.5;;;;;;;;;;;;;
2024/03/14 15:18:38;;;;;;;0.3;0.3;;;;;;;;;;;;;
2024/03/14 15:21:03;;;;;;;0.5;0.5;;;;;;;;;;;;;
2024/03/14 15:23:28;;;;;;;0.5;0.4;;;;;;;;;;;;;
2024/03/14 15:25:53;;;;;;;0.4;0.4;;;;;;;;;;;;;
2024/03/14 15:28:19;;;;;;;0.8;0.3;;;;;;;;;;;;;
2024/03/14 15:30:43;;;;;;;0.4;0.3;;;;;;;;;;;;;
2024/03/14 15:33:09;;;;;;;0.4;0.4;;;;;;;;;;;;;
2024/03/14 15:35:34;;;;;;;0.5;0.4;;;;;;;;;;;;;
2024/03/14 15:38:00;;;;;;;0.5;0.5;;;;;;;;;;;;;
2024/03/14 15:40:27;;;;;;;1.1;0.4;;;;;;;;;;;;;
2024/03/14 15:42:50;;;;;;;0.4;0.4;;;;;;;;;;;;;
2024/03/14 15:45:17;;;;;;;0.6;0.5;;;;;;;;;;;;;
2024/03/14 15:47:39;;;;;;;0.5;0.5;;;;;;;;;;;;;
2024/03/14 15:50:05;;;;;;;0.5;0.5;;;;;;;;;;;;;
2024/03/14 15:52:29;;;;;;;0.4;0.4;;;;;;;;;;;;;
2024/03/14 15:54:55;;;;;;;0.4;0.4;;;;;;;;;;;;;
2024/03/14 15:57:19;;;;;;;1.1;0.5;;;;;;;;;;;;;
2024/03/14 15:59:46;;;;;;;1.3;0.5;;;;;;;;;;;;;
2024/03/14 16:02:11;;;;;;;0.5;0.5;;;;;;;;;;;;;
2024/03/14 16:04:36;;;;;;;1;0.3;;;;;;;;;;;;;
2024/03/14 16:07:01;;;;;;;2;0.5;;;;;;;;;;;;;
2024/03/14 16:09:25;;;;;;;1.8;0.6;;;;;;;;;;;;;
2024/03/14 16:11:51;;;;;;;1.4;0.4;;;;;;;;;;;;;
2024/03/14 16:14:18;;;;;;;0.9;0.4;;;;;;;;;;;;;
2024/03/14 16:16:41;;;;;;;0.4;0.4;;;;;;;;;;;;;
2024/03/14 16:19:08;;;;;;;0.7;0.7;;;;;;;;;;;;;
2024/03/14 16:21:31;;;;;;;0.5;0.5;;;;;;;;;;;;;
2024/03/14 16:23:57;;;;;;;2;0.9;;;;;;;;;;;;;
2024/03/14 16:26:23;;;;;;;1;0.9;;;;;;;;;;;;;
2024/03/14 16:28:51;;;;;;;0.7;0.6;;;;;;;;;;;;;
2024/03/14 16:31:12;;;;;;;1.7;0.7;;;;;;;;;;;;;
2024/03/14 16:33:37;;;;;;;1.4;0.9;;;;;;;;;;;;;
2024/03/14 16:36:04;;;;;;;0.9;0.6;;;;;;;;;;;;;
2024/03/14 16:38:27;;;;;;;1.8;0.5;;;;;;;;;;;;;
2024/03/14 16:40:52;;;;;;;0.5;0.4;;;;;;;;;;;;;
2024/03/14 16:43:18;;;;;;;1.5;0.5;;;;;;;;;;;;;
2024/03/14 16:45:43;;;;;;;1.1;0.7;;;;;;;;;;;;;
2024/03/14 16:48:07;;;;;;;1.7;0.6;;;;;;;;;;;;;
2024/03/14 16:50:34;;;;;;;1.6;0.7;;;;;;;;;;;;;
2024/03/14 16:52:58;;;;;;;1.6;0.6;;;;;;;;;;;;;
2024/03/14 16:55:24;;;;;;;0.9;0.5;;;;;;;;;;;;;
2024/03/14 16:57:48;;;;;;;0.8;0.4;;;;;;;;;;;;;
2024/03/14 17:00:19;;;;;;;1.6;0.8;;;;;;;;;;;;;
2024/03/14 17:02:38;;;;;;;0.7;0.7;;;;;;;;;;;;;
2024/03/14 17:05:04;;;;;;;3.1;0.9;;;;;;;;;;;;;
2024/03/14 17:07:29;;;;;;;1;0.8;;;;;;;;;;;;;
2024/03/14 17:09:54;;;;;;;4.7;1.3;;;;;;;;;;;;;
2024/03/14 17:12:19;;;;;;;2;1;;;;;;;;;;;;;
2024/03/14 17:14:44;;;;;;;2.1;0.7;;;;;;;;;;;;;
2024/03/14 17:17:10;;;;;;;2.9;1.1;;;;;;;;;;;;;
2024/03/14 17:19:34;;;;;;;2.4;1;;;;;;;;;;;;;
2024/03/14 17:22:00;;;;;;;3.3;0.9;;;;;;;;;;;;;
2024/03/14 17:24:37;;;;;;;2.8;1.1;;;;;;;;;;;;;
2024/03/14 17:26:53;;;;;;;1;1;;;;;;;;;;;;;
2024/03/14 17:29:17;;;;;;;1.6;1;;;;;;;;;;;;;
2024/03/14 17:31:42;;;;;;;2;1.2;;;;;;;;;;;;;
2024/03/14 17:34:07;;;;;;;1.4;1;;;;;;;;;;;;;
2024/03/14 17:36:32;;;;;;;1;0.9;;;;;;;;;;;;;
2024/03/14 17:38:57;;;;;;;2.8;1;;;;;;;;;;;;;
2024/03/14 17:41:23;;;;;;;7.4;3.9;;;;;;;;;;;;;
2024/03/14 17:43:48;;;;;;;3.2;2.5;;;;;;;;;;;;;
2024/03/14 17:46:13;;;;;;;6;3;;;;;;;;;;;;;
2024/03/14 17:48:40;;;;;;;6.8;2.9;;;;;;;;;;;;;
2024/03/14 17:51:03;;;;;;;4.4;2.8;;;;;;;;;;;;;
2024/03/14 17:53:28;;;;;;;4.9;2.5;;;;;;;;;;;;;
2024/03/14 17:55:56;;;;;;;3.4;2;;;;;;;;;;;;;
2024/03/14 17:58:19;;;;;;;10.6;5.3;;;;;;;;;;;;;
2024/03/14 18:03:14;;;;;;;7.6;3.6;;;;;;;;;;;;;
2024/03/14 18:05:39;;;;;;;4.3;2.3;;;;;;;;;;;;;
2024/03/14 18:08:05;;;;;;;5.7;2.8;;;;;;;;;;;;;
2024/03/14 18:10:31;;;;;;;9.2;4.4;;;;;;;;;;;;;
2024/03/14 18:12:55;;;;;;;7.1;5;;;;;;;;;;;;;
2024/03/14 18:15:20;;;;;;;14.5;6.6;;;;;;;;;;;;;
2024/03/14 18:17:45;;;;;;;12.6;5.5;;;;;;;;;;;;;
2024/03/14 18:20:12;;;;;;;12.8;5.9;;;;;;;;;;;;;
2024/03/14 18:22:35;;;;;;;6.6;2.9;;;;;;;;;;;;;
2024/03/14 18:25:04;;;;;;;5.7;4.4;;;;;;;;;;;;;
2024/03/14 18:27:25;;;;;;;7.9;3.5;;;;;;;;;;;;;
2024/03/14 18:29:51;;;;;;;7.8;3.7;;;;;;;;;;;;;
2024/03/14 18:32:17;;;;;;;9.2;6.1;;;;;;;;;;;;;
2024/03/14 18:34:42;;;;;;;12.9;6.1;;;;;;;;;;;;;
2024/03/14 18:37:06;;;;;;;10.4;5.7;;;;;;;;;;;;;
2024/03/14 18:39:31;;;;;;;6.7;3.3;;;;;;;;;;;;;
2024/03/14 18:42:00;;;;;;;3.8;3.1;;;;;;;;;;;;;
2024/03/14 18:44:26;;;;;;;5.1;3.1;;;;;;;;;;;;;
2024/03/14 18:46:46;;;;;;;5.9;2.5;;;;;;;;;;;;;
2024/03/14 18:49:11;;;;;;;3.7;2.5;;;;;;;;;;;;;
2024/03/14 18:51:37;;;;;;;8.4;2.5;;;;;;;;;;;;;
2024/03/14 18:54:02;;;;;;;4.5;2.4;;;;;;;;;;;;;
2024/03/14 18:56:27;;;;;;;3.1;1.8;;;;;;;;;;;;;
2024/03/14 18:58:52;;;;;;;4.3;2.5;;;;;;;;;;;;;
2024/03/14 19:01:17;;;;;;;10.3;6.4;;;;;;;;;;;;;
2024/03/14 19:03:49;;;;;;;4.5;3;;;;;;;;;;;;;
2024/03/14 19:06:07;;;;;;;2.4;2;;;;;;;;;;;;;
2024/03/14 19:08:32;;;;;;;3.5;1.9;;;;;;;;;;;;;
2024/03/14 19:10:57;;;;;;;11.9;8.3;;;;;;;;;;;;;
2024/03/14 19:13:23;;;;;;;16.2;14.5;;;;;;;;;;;;;
2024/03/14 19:15:47;;;;;;;4.6;3.4;;;;;;;;;;;;;
2024/03/14 19:18:14;;;;;;;10.9;8.2;;;;;;;;;;;;;
2024/03/14 19:20:38;;;;;;;13;9.2;;;;;;;;;;;;;
2024/03/14 19:23:04;;;;;;;13.1;7.6;;;;;;;;;;;;;
2024/03/14 19:25:28;;;;;;;11.4;7;;;;;;;;;;;;;
2024/03/14 19:27:54;;;;;;;11.4;7;;;;;;;;;;;;;
2024/03/14 19:30:21;;;;;;;8.7;6;;;;;;;;;;;;;
2024/03/14 19:32:43;;;;;;;8.2;5.3;;;;;;;;;;;;;
2024/03/14 19:35:10;;;;;;;9.4;5.9;;;;;;;;;;;;;
2024/03/14 19:37:33;;;;;;;12.1;7.3;;;;;;;;;;;;;
2024/03/14 19:39:59;;;;;;;11.4;6.8;;;;;;;;;;;;;
2024/03/14 19:42:24;;;;;;;9.6;6.4;;;;;;;;;;;;;
2024/03/14 19:44:49;;;;;;;15.7;6.9;;;;;;;;;;;;;
2024/03/14 19:47:15;;;;;;;9.6;6.4;;;;;;;;;;;;;
2024/03/14 19:49:40;;;;;;;9.6;6.2;;;;;;;;;;;;;
2024/03/14 19:52:05;;;;;;;11;5.6;;;;;;;;;;;;;
2024/03/14 19:54:30;;;;;;;7.7;5.2;;;;;;;;;;;;;
2024/03/14 19:56:55;;;;;;;11.2;6.4;;;;;;;;;;;;;
2024/03/14 19:59:21;;;;;;;11.2;6.7;;;;;;;;;;;;;
2024/03/14 20:01:45;;;;;;;11.9;6.8;;;;;;;;;;;;;
2024/03/14 20:04:10;;;;;;;10.8;5.8;;;;;;;;;;;;;
2024/03/14 20:06:35;;;;;;;9.7;5.8;;;;;;;;;;;;;
2024/03/14 20:09:03;;;;;;;8.1;5.6;;;;;;;;;;;;;
2024/03/14 20:11:25;;;;;;;9.2;5.9;;;;;;;;;;;;;
2024/03/14 20:13:50;;;;;;;8.3;5.4;;;;;;;;;;;;;
2024/03/14 20:16:16;;;;;;;7.8;5.3;;;;;;;;;;;;;
2024/03/14 20:18:41;;;;;;;8.5;5.1;;;;;;;;;;;;;
2024/03/14 20:21:08;;;;;;;7.3;4.9;;;;;;;;;;;;;
2024/03/14 20:23:31;;;;;;;6.5;3.8;;;;;;;;;;;;;
2024/03/14 20:25:56;;;;;;;6.6;4.1;;;;;;;;;;;;;
2024/03/14 20:28:21;;;;;;;4.7;3.3;;;;;;;;;;;;;
2024/03/14 20:30:46;;;;;;;6.7;3.8;;;;;;;;;;;;;
2024/03/14 20:33:12;;;;;;;10.3;5.3;;;;;;;;;;;;;
2024/03/14 20:35:37;;;;;;;8.5;5.5;;;;;;;;;;;;;